Time;durP1;ratioP1;P1;durP2;ratioP2;P2;SDS_P1;SDS_P2;PMS_P1;PMS_P2;Temp;Humidity;BMP_temperature;BMP_pressure;BME280_temperature;BME280_humidity;BME280_pressure;Samples;Min_cycle;Max_cycle;Signal;HPM_P1;HPM_P2
2021/10/14 00:01:34;;;;;;;;;43.00;33.50;;;;;;;;5018055;28;45433;-71
2021/10/14 00:03:59;;;;;;;;;39.25;31.00;;;;;;;;5018141;28;45413;-72
2021/10/14 00:06:24;;;;;;;;;38.75;32.50;;;;;;;;5018329;28;45626;-71
2021/10/14 00:08:50;;;;;;;;;37.75;31.25;;;;;;;;5018023;28;46538;-72
2021/10/14 00:11:15;;;;;;;;;37.50;30.75;;;;;;;;5019249;28;45405;-68
2021/10/14 00:13:40;;;;;;;;;33.25;29.50;;;;;;;;5018939;28;45365;-69
2021/10/14 00:16:05;;;;;;;;;34.75;30.25;;;;;;;;5019092;28;45490;-72
2021/10/14 00:18:31;;;;;;;;;31.00;29.00;;;;;;;;5022346;28;45501;-72
2021/10/14 00:20:56;;;;;;;;;36.00;31.25;;;;;;;;5020801;28;45417;-70
2021/10/14 00:23:21;;;;;;;;;35.00;31.50;;;;;;;;5017516;28;45407;-68
2021/10/14 00:25:47;;;;;;;;;36.75;32.25;;;;;;;;5017739;28;45346;-69
2021/10/14 00:28:12;;;;;;;;;34.00;29.00;;;;;;;;5012553;28;46418;-71
2021/10/14 00:30:37;;;;;;;;;33.75;30.50;;;;;;;;5011554;28;45336;-70
2021/10/14 00:33:02;;;;;;;;;41.00;29.50;;;;;;;;5000415;28;45263;-69
2021/10/14 00:35:28;;;;;;;;;41.25;32.00;;;;;;;;5001098;28;45479;-71
2021/10/14 00:37:53;;;;;;;;;44.25;33.00;;;;;;;;5015675;28;46821;-70
2021/10/14 00:40:18;;;;;;;;;24.25;19.75;;;;;;;;4995081;28;45508;-70
2021/10/14 00:42:44;;;;;;;;;37.00;30.75;;;;;;;;4996468;28;45459;-68
2021/10/14 00:45:10;;;;;;;;;40.75;32.25;;;;;;;;4996157;28;45527;-72
2021/10/14 00:47:35;;;;;;;;;35.50;31.50;;;;;;;;5000095;28;45426;-70
2021/10/14 00:50:00;;;;;;;;;34.75;30.00;;;;;;;;4996500;28;45410;-68
2021/10/14 00:52:26;;;;;;;;;41.25;33.25;;;;;;;;4996652;28;45363;-69
2021/10/14 00:54:52;;;;;;;;;34.00;32.25;;;;;;;;4996998;28;45420;-69
2021/10/14 00:57:18;;;;;;;;;36.00;30.00;;;;;;;;4997049;28;45695;-69
2021/10/14 00:59:43;;;;;;;;;41.75;32.25;;;;;;;;5012176;28;45515;-71
2021/10/14 01:02:08;;;;;;;;;37.00;32.00;;;;;;;;4997232;28;45340;-70
2021/10/14 01:04:34;;;;;;;;;30.50;30.25;;;;;;;;4996420;28;45310;-72
2021/10/14 01:06:59;;;;;;;;;40.75;32.75;;;;;;;;5010869;28;48339;-69
2021/10/14 01:09:25;;;;;;;;;36.75;32.75;;;;;;;;4997392;28;45411;-68
2021/10/14 01:11:50;;;;;;;;;41.75;35.75;;;;;;;;4998107;28;45384;-73
2021/10/14 01:14:16;;;;;;;;;33.75;31.00;;;;;;;;4998485;28;45626;-73
2021/10/14 01:16:42;;;;;;;;;38.75;30.50;;;;;;;;4998237;28;45430;-73
2021/10/14 01:19:08;;;;;;;;;37.50;32.00;;;;;;;;4998473;28;45461;-73
2021/10/14 01:21:34;;;;;;;;;42.00;32.50;;;;;;;;4998610;28;45271;-72
2021/10/14 01:23:59;;;;;;;;;35.25;31.00;;;;;;;;4998048;28;45299;-71
2021/10/14 01:26:25;;;;;;;;;36.50;29.25;;;;;;;;4997370;28;45414;-70
2021/10/14 01:28:50;;;;;;;;;34.50;29.25;;;;;;;;5012615;28;45409;-71
2021/10/14 01:31:16;;;;;;;;;39.50;33.00;;;;;;;;4997377;28;45188;-69
2021/10/14 01:33:41;;;;;;;;;34.50;30.75;;;;;;;;4997252;28;45527;-70
2021/10/14 01:36:06;;;;;;;;;33.00;30.00;;;;;;;;4997384;28;45502;-71
2021/10/14 01:38:32;;;;;;;;;44.00;31.50;;;;;;;;4996630;28;45860;-69
2021/10/14 01:40:57;;;;;;;;;34.75;32.00;;;;;;;;4996923;28;45624;-70
2021/10/14 01:43:22;;;;;;;;;39.00;32.25;;;;;;;;4997340;28;45466;-69
2021/10/14 01:45:47;;;;;;;;;41.75;33.00;;;;;;;;4997166;28;46164;-71
2021/10/14 01:48:12;;;;;;;;;38.50;33.00;;;;;;;;4997702;28;45454;-71
2021/10/14 01:50:38;;;;;;;;;33.75;31.00;;;;;;;;4997617;28;45490;-68
2021/10/14 01:53:03;;;;;;;;;37.50;33.00;;;;;;;;4996383;28;45402;-70
2021/10/14 01:55:28;;;;;;;;;40.25;33.50;;;;;;;;4997350;28;45412;-71
2021/10/14 01:57:54;;;;;;;;;41.00;33.50;;;;;;;;4997148;28;45438;-72
2021/10/14 02:00:19;;;;;;;;;39.50;33.25;;;;;;;;4997842;28;45425;-71
2021/10/14 02:02:44;;;;;;;;;38.50;32.25;;;;;;;;4997487;28;45346;-69
2021/10/14 02:05:09;;;;;;;;;42.25;36.00;;;;;;;;4996655;28;46117;-69
2021/10/14 02:07:34;;;;;;;;;35.75;31.00;;;;;;;;4996725;28;45269;-72
2021/10/14 02:10:02;;;;;;;;;36.75;33.00;;;;;;;;4997003;28;45485;-74
2021/10/14 02:12:27;;;;;;;;;42.75;34.00;;;;;;;;4996250;28;45282;-73
2021/10/14 02:14:53;;;;;;;;;39.75;34.00;;;;;;;;4997444;28;45718;-72
2021/10/14 02:17:18;;;;;;;;;42.50;34.00;;;;;;;;4996771;28;45392;-71
2021/10/14 02:19:43;;;;;;;;;40.00;34.25;;;;;;;;4997419;28;45191;-70
2021/10/14 02:22:08;;;;;;;;;39.00;33.00;;;;;;;;4997265;28;45461;-71
2021/10/14 02:24:34;;;;;;;;;47.00;37.00;;;;;;;;4996555;28;45432;-68
2021/10/14 02:26:59;;;;;;;;;39.00;34.00;;;;;;;;4997197;28;45302;-70
2021/10/14 02:29:24;;;;;;;;;40.50;34.00;;;;;;;;4997158;28;45213;-70
2021/10/14 02:31:49;;;;;;;;;39.75;34.00;;;;;;;;4997326;28;45232;-71
2021/10/14 02:34:15;;;;;;;;;45.25;36.25;;;;;;;;4996512;28;46194;-70
2021/10/14 02:36:40;;;;;;;;;46.50;37.50;;;;;;;;4996214;28;45340;-69
2021/10/14 02:39:05;;;;;;;;;44.25;36.75;;;;;;;;4994875;28;45307;-70
2021/10/14 02:41:31;;;;;;;;;41.50;34.00;;;;;;;;4996696;28;45579;-69
2021/10/14 02:43:56;;;;;;;;;47.25;34.00;;;;;;;;4995883;28;46085;-71
2021/10/14 02:46:21;;;;;;;;;43.25;35.00;;;;;;;;4996523;28;45293;-70
2021/10/14 02:48:46;;;;;;;;;45.75;38.25;;;;;;;;4996212;28;45362;-68
2021/10/14 02:51:12;;;;;;;;;36.25;30.25;;;;;;;;4996206;28;45308;-69
2021/10/14 02:53:37;;;;;;;;;45.75;36.00;;;;;;;;4996030;28;46084;-72
2021/10/14 02:56:02;;;;;;;;;48.25;38.75;;;;;;;;4996271;28;45266;-72
2021/10/14 02:58:27;;;;;;;;;45.50;36.00;;;;;;;;4996283;28;45465;-71
2021/10/14 03:00:53;;;;;;;;;52.00;39.50;;;;;;;;4996664;28;45746;-69
2021/10/14 03:03:18;;;;;;;;;51.25;38.00;;;;;;;;4996058;28;46693;-70
2021/10/14 03:05:43;;;;;;;;;44.25;36.25;;;;;;;;4995780;28;45328;-70
2021/10/14 03:08:08;;;;;;;;;44.00;37.00;;;;;;;;4995956;28;45306;-71
2021/10/14 03:10:33;;;;;;;;;40.75;36.00;;;;;;;;4994516;28;45271;-71
2021/10/14 03:12:59;;;;;;;;;41.00;37.00;;;;;;;;4995550;28;45399;-71
2021/10/14 03:15:24;;;;;;;;;46.75;36.50;;;;;;;;4995973;28;45467;-70
2021/10/14 03:17:49;;;;;;;;;46.00;36.75;;;;;;;;4995891;28;45459;-72
2021/10/14 03:20:14;;;;;;;;;43.25;35.75;;;;;;;;4995858;28;45420;-73
2021/10/14 03:22:40;;;;;;;;;41.50;34.25;;;;;;;;4995578;28;45380;-74
2021/10/14 03:25:07;;;;;;;;;44.25;34.00;;;;;;;;4995564;28;45395;-74
2021/10/14 03:27:32;;;;;;;;;45.25;36.75;;;;;;;;4995763;28;45450;-70
2021/10/14 03:29:57;;;;;;;;;46.00;37.50;;;;;;;;4995421;28;45554;-72
2021/10/14 03:32:22;;;;;;;;;45.25;37.00;;;;;;;;4994257;28;48398;-72
2021/10/14 03:34:49;;;;;;;;;42.75;34.25;;;;;;;;4995398;28;45319;-70
2021/10/14 03:37:14;;;;;;;;;43.50;34.25;;;;;;;;4995879;28;45251;-69
2021/10/14 03:39:40;;;;;;;;;46.75;37.25;;;;;;;;4995622;28;45538;-69
2021/10/14 03:42:05;;;;;;;;;45.50;38.75;;;;;;;;4995302;28;46359;-68
2021/10/14 03:44:30;;;;;;;;;43.50;37.25;;;;;;;;4995369;28;45328;-69
2021/10/14 03:46:55;;;;;;;;;43.50;37.25;;;;;;;;4994512;28;45360;-70
2021/10/14 03:49:20;;;;;;;;;45.75;37.75;;;;;;;;4995753;28;45222;-71
2021/10/14 03:51:46;;;;;;;;;48.75;39.75;;;;;;;;4994055;28;46737;-70
2021/10/14 03:54:11;;;;;;;;;41.25;36.25;;;;;;;;4995262;28;45415;-70
2021/10/14 03:56:36;;;;;;;;;47.75;38.00;;;;;;;;4995575;28;45223;-67
2021/10/14 03:59:01;;;;;;;;;49.00;37.50;;;;;;;;4995716;28;45588;-70
2021/10/14 04:01:26;;;;;;;;;47.75;37.75;;;;;;;;4995616;28;46254;-71
2021/10/14 04:03:52;;;;;;;;;47.25;38.75;;;;;;;;4995284;28;45403;-71
2021/10/14 04:06:17;;;;;;;;;49.50;40.00;;;;;;;;4995339;28;45416;-73
2021/10/14 04:08:42;;;;;;;;;45.50;38.25;;;;;;;;4995572;28;45300;-72
2021/10/14 04:11:07;;;;;;;;;48.50;39.50;;;;;;;;4995449;28;45585;-70
2021/10/14 04:13:33;;;;;;;;;46.50;37.25;;;;;;;;4995147;28;45437;-71
2021/10/14 04:15:58;;;;;;;;;49.50;39.25;;;;;;;;4995554;28;45326;-69
2021/10/14 04:18:23;;;;;;;;;51.50;41.50;;;;;;;;4995369;28;45607;-71
2021/10/14 04:20:48;;;;;;;;;47.00;38.00;;;;;;;;4994828;28;46328;-69
2021/10/14 04:23:16;;;;;;;;;51.75;42.00;;;;;;;;4994977;28;45395;-71
2021/10/14 04:25:42;;;;;;;;;51.50;40.50;;;;;;;;4995205;28;45345;-74
2021/10/14 04:28:07;;;;;;;;;55.00;39.75;;;;;;;;4995347;28;45545;-74
2021/10/14 04:30:33;;;;;;;;;46.50;37.75;;;;;;;;4994856;28;45238;-71
2021/10/14 04:32:58;;;;;;;;;41.25;36.50;;;;;;;;4995114;28;45301;-72
2021/10/14 04:35:24;;;;;;;;;47.75;35.50;;;;;;;;4995148;28;45173;-74
2021/10/14 04:37:49;;;;;;;;;50.50;39.50;;;;;;;;4993613;28;45588;-74
2021/10/14 04:40:14;;;;;;;;;46.25;37.00;;;;;;;;4996834;28;45305;-73
2021/10/14 04:42:39;;;;;;;;;45.50;37.50;;;;;;;;4997056;28;45699;-72
2021/10/14 04:45:05;;;;;;;;;46.00;38.50;;;;;;;;4998496;28;45292;-70
2021/10/14 04:47:30;;;;;;;;;47.75;38.25;;;;;;;;4998927;28;45619;-70
2021/10/14 04:49:55;;;;;;;;;43.25;37.25;;;;;;;;4996790;28;48068;-70
2021/10/14 04:52:21;;;;;;;;;51.50;37.75;;;;;;;;4998030;28;45244;-70
2021/10/14 04:54:46;;;;;;;;;50.25;38.75;;;;;;;;4997912;28;45259;-72
2021/10/14 04:57:11;;;;;;;;;46.25;37.00;;;;;;;;4998185;28;45293;-71
2021/10/14 04:59:36;;;;;;;;;47.50;40.00;;;;;;;;4997523;28;46516;-69
2021/10/14 05:02:02;;;;;;;;;44.25;37.00;;;;;;;;4996336;28;45264;-70
2021/10/14 05:04:27;;;;;;;;;47.00;34.50;;;;;;;;4996721;28;45485;-71
2021/10/14 05:06:53;;;;;;;;;46.75;35.50;;;;;;;;4998044;28;45526;-71
2021/10/14 05:09:18;;;;;;;;;48.25;38.50;;;;;;;;4997511;28;45392;-71
2021/10/14 05:11:43;;;;;;;;;46.00;39.25;;;;;;;;4997583;28;45333;-70
2021/10/14 05:14:08;;;;;;;;;49.50;39.50;;;;;;;;4997623;28;45348;-71
2021/10/14 05:16:34;;;;;;;;;45.00;35.75;;;;;;;;4998140;28;45670;-71
2021/10/14 05:18:59;;;;;;;;;49.75;41.00;;;;;;;;4998274;28;46190;-72
2021/10/14 05:21:25;;;;;;;;;51.75;38.50;;;;;;;;4998309;28;45431;-71
2021/10/14 05:23:50;;;;;;;;;51.00;40.50;;;;;;;;4997754;28;45587;-74
2021/10/14 05:26:15;;;;;;;;;50.50;40.75;;;;;;;;4997704;28;45554;-69
2021/10/14 05:28:40;;;;;;;;;48.75;38.50;;;;;;;;4997239;28;45520;-74
2021/10/14 05:31:07;;;;;;;;;49.25;39.25;;;;;;;;4995838;28;45399;-72
2021/10/14 05:33:32;;;;;;;;;47.25;38.25;;;;;;;;4997338;28;45344;-73
2021/10/14 05:35:57;;;;;;;;;49.25;38.00;;;;;;;;4997509;28;45561;-70
2021/10/14 05:38:22;;;;;;;;;49.00;38.25;;;;;;;;4996941;28;46789;-72
2021/10/14 05:40:48;;;;;;;;;51.75;39.00;;;;;;;;4995987;28;45337;-72
2021/10/14 05:43:13;;;;;;;;;54.25;40.75;;;;;;;;4995840;28;45343;-71
2021/10/14 05:45:39;;;;;;;;;50.25;41.00;;;;;;;;4997405;28;45229;-72
2021/10/14 05:48:04;;;;;;;;;54.25;41.50;;;;;;;;4995969;28;46440;-73
2021/10/14 05:50:29;;;;;;;;;53.00;41.50;;;;;;;;4996135;28;45306;-72
2021/10/14 05:52:54;;;;;;;;;52.25;40.25;;;;;;;;4995580;28;45843;-70
2021/10/14 05:55:20;;;;;;;;;48.00;37.50;;;;;;;;4996781;28;45226;-70
2021/10/14 05:57:45;;;;;;;;;53.75;43.25;;;;;;;;4996906;28;45473;-71
2021/10/14 06:00:11;;;;;;;;;52.75;43.00;;;;;;;;4996752;28;45182;-73
2021/10/14 06:02:37;;;;;;;;;47.75;39.25;;;;;;;;4997044;28;45165;-69
2021/10/14 06:05:02;;;;;;;;;52.75;41.00;;;;;;;;4997274;28;45156;-72
2021/10/14 06:07:27;;;;;;;;;48.50;40.25;;;;;;;;4996646;28;46932;-72
2021/10/14 06:09:52;;;;;;;;;54.75;40.00;;;;;;;;4996658;28;45153;-70
2021/10/14 06:12:20;;;;;;;;;51.25;41.25;;;;;;;;4995420;28;45398;-69
2021/10/14 06:14:45;;;;;;;;;47.25;37.50;;;;;;;;4997112;28;45312;-71
2021/10/14 06:17:10;;;;;;;;;50.75;41.75;;;;;;;;4996671;28;45371;-73
2021/10/14 06:19:35;;;;;;;;;48.25;40.00;;;;;;;;4997093;28;45502;-71
2021/10/14 06:22:01;;;;;;;;;49.75;40.00;;;;;;;;4996407;28;45465;-71
2021/10/14 06:24:26;;;;;;;;;62.75;46.00;;;;;;;;4996628;28;45425;-71
2021/10/14 06:26:51;;;;;;;;;52.75;42.50;;;;;;;;4996671;28;45985;-72
2021/10/14 06:29:16;;;;;;;;;53.75;42.50;;;;;;;;4996619;28;45257;-73
2021/10/14 06:31:41;;;;;;;;;51.50;42.00;;;;;;;;4996925;28;45248;-73
2021/10/14 06:34:07;;;;;;;;;51.50;40.75;;;;;;;;4995975;28;45511;-74
2021/10/14 06:36:32;;;;;;;;;51.50;40.00;;;;;;;;4996403;28;46609;-73
2021/10/14 06:38:57;;;;;;;;;51.25;42.50;;;;;;;;4996530;28;45343;-72
2021/10/14 06:41:23;;;;;;;;;47.75;37.75;;;;;;;;5011973;28;45390;-75
2021/10/14 06:43:48;;;;;;;;;53.75;43.75;;;;;;;;4996364;28;45505;-73
2021/10/14 06:46:13;;;;;;;;;54.50;42.00;;;;;;;;4996109;28;45412;-72
2021/10/14 06:48:38;;;;;;;;;51.25;41.00;;;;;;;;4996173;28;45320;-69
2021/10/14 06:51:03;;;;;;;;;53.50;42.50;;;;;;;;4996498;28;45292;-73
2021/10/14 06:53:29;;;;;;;;;49.50;41.00;;;;;;;;4997120;28;45622;-75
2021/10/14 06:55:54;;;;;;;;;51.50;40.25;;;;;;;;4996695;28;46474;-75
2021/10/14 06:58:19;;;;;;;;;50.50;40.50;;;;;;;;4996022;28;45435;-71
2021/10/14 07:00:45;;;;;;;;;52.00;41.00;;;;;;;;4995982;28;45333;-72
2021/10/14 07:03:10;;;;;;;;;57.75;44.00;;;;;;;;4996081;28;45409;-72
2021/10/14 07:05:35;;;;;;;;;57.00;45.00;;;;;;;;4996608;28;45476;-72
2021/10/14 07:08:01;;;;;;;;;61.00;46.00;;;;;;;;4995705;28;45316;-72
2021/10/14 07:10:26;;;;;;;;;64.75;49.25;;;;;;;;4996146;28;45376;-68
2021/10/14 07:12:52;;;;;;;;;63.75;50.25;;;;;;;;4996172;28;45253;-72
2021/10/14 07:15:18;;;;;;;;;51.25;41.50;;;;;;;;4995423;28;45407;-71
2021/10/14 07:17:43;;;;;;;;;51.00;41.25;;;;;;;;4995954;28;45465;-72
2021/10/14 07:20:08;;;;;;;;;53.75;43.00;;;;;;;;4995911;28;45388;-72
2021/10/14 07:22:34;;;;;;;;;54.25;43.00;;;;;;;;4995788;28;45565;-72
2021/10/14 07:24:59;;;;;;;;;50.25;42.00;;;;;;;;4995681;28;45417;-75
2021/10/14 07:27:25;;;;;;;;;53.00;41.25;;;;;;;;4996100;28;45499;-75
2021/10/14 07:29:50;;;;;;;;;57.50;45.00;;;;;;;;4997061;28;45392;-76
2021/10/14 07:32:15;;;;;;;;;56.50;43.25;;;;;;;;4996123;28;45439;-69
2021/10/14 07:34:40;;;;;;;;;58.00;44.25;;;;;;;;4995435;28;46223;-66
2021/10/14 07:37:06;;;;;;;;;54.50;43.00;;;;;;;;4995387;28;45371;-68
2021/10/14 07:39:32;;;;;;;;;54.25;41.00;;;;;;;;4995597;28;45593;-71
2021/10/14 07:41:57;;;;;;;;;52.25;39.75;;;;;;;;4995536;28;45553;-74
2021/10/14 07:44:22;;;;;;;;;39.50;35.75;;;;;;;;4995036;28;45451;-71
2021/10/14 07:46:47;;;;;;;;;48.25;40.00;;;;;;;;4995681;28;45415;-70
2021/10/14 07:49:14;;;;;;;;;49.75;40.75;;;;;;;;4995682;28;45418;-67
2021/10/14 07:51:39;;;;;;;;;53.25;42.00;;;;;;;;4996254;28;45527;-70
2021/10/14 07:54:05;;;;;;;;;50.75;41.00;;;;;;;;4995264;28;45330;-73
2021/10/14 07:56:31;;;;;;;;;48.75;40.50;;;;;;;;4995341;28;45402;-74
2021/10/14 07:58:56;;;;;;;;;49.25;40.00;;;;;;;;4995144;28;45402;-74
2021/10/14 08:01:21;;;;;;;;;49.75;41.75;;;;;;;;4995461;28;45590;-72
2021/10/14 08:03:47;;;;;;;;;52.00;40.00;;;;;;;;4993835;28;45887;-75
2021/10/14 08:06:12;;;;;;;;;52.75;40.75;;;;;;;;4995088;28;45380;-75
2021/10/14 08:08:37;;;;;;;;;51.00;41.00;;;;;;;;4994478;28;45330;-74
2021/10/14 08:11:03;;;;;;;;;52.50;42.00;;;;;;;;4996505;28;45396;-72
2021/10/14 08:13:28;;;;;;;;;55.25;44.00;;;;;;;;4996253;28;45614;-72
2021/10/14 08:15:53;;;;;;;;;53.50;41.00;;;;;;;;4998515;28;45479;-72
2021/10/14 08:18:20;;;;;;;;;52.25;41.50;;;;;;;;5000457;28;45277;-70
2021/10/14 08:20:45;;;;;;;;;49.75;41.50;;;;;;;;4999731;28;45332;-69
2021/10/14 08:23:11;;;;;;;;;53.25;42.50;;;;;;;;4999466;28;46301;-72
2021/10/14 08:25:36;;;;;;;;;49.00;40.50;;;;;;;;4997302;28;45500;-70
2021/10/14 08:28:01;;;;;;;;;50.50;41.75;;;;;;;;4998229;28;45484;-73
2021/10/14 08:30:27;;;;;;;;;48.50;39.75;;;;;;;;4998338;28;45364;-71
2021/10/14 08:32:52;;;;;;;;;46.75;36.00;;;;;;;;4997797;28;45467;-75
2021/10/14 08:35:21;;;;;;;;;48.75;36.00;;;;;;;;4996896;28;45454;-73
2021/10/14 08:37:47;;;;;;;;;44.75;37.50;;;;;;;;4997847;28;45244;-72
2021/10/14 08:40:13;;;;;;;;;42.00;35.25;;;;;;;;4998428;28;45241;-71
2021/10/14 08:42:39;;;;;;;;;50.75;38.25;;;;;;;;4997561;28;45405;-75
2021/10/14 08:45:05;;;;;;;;;48.00;36.00;;;;;;;;4997841;28;45415;-71
2021/10/14 08:47:31;;;;;;;;;42.25;34.25;;;;;;;;4998035;28;45429;-68
2021/10/14 08:49:57;;;;;;;;;37.75;33.25;;;;;;;;4998394;28;45273;-69
2021/10/14 08:52:22;;;;;;;;;47.25;34.00;;;;;;;;4998220;28;47334;-74
2021/10/14 08:54:48;;;;;;;;;41.00;32.50;;;;;;;;4997536;28;45374;-72
2021/10/14 08:57:13;;;;;;;;;43.75;33.00;;;;;;;;4996672;28;45315;-68
2021/10/14 08:59:38;;;;;;;;;41.75;34.50;;;;;;;;4997398;28;45564;-67
2021/10/14 09:02:04;;;;;;;;;38.00;31.50;;;;;;;;4997243;28;45452;-71
2021/10/14 09:04:31;;;;;;;;;29.75;26.00;;;;;;;;4997311;28;45340;-72
2021/10/14 09:07:07;;;;;;;;;36.00;31.50;;;;;;;;4997472;28;45219;-74
2021/10/14 09:09:36;;;;;;;;;42.25;32.00;;;;;;;;4997427;28;45311;-74
2021/10/14 09:12:02;;;;;;;;;44.25;37.75;;;;;;;;4996731;28;46421;-72
2021/10/14 09:14:28;;;;;;;;;37.50;32.25;;;;;;;;4997118;28;45415;-70
2021/10/14 09:16:53;;;;;;;;;37.00;32.50;;;;;;;;4997275;28;45336;-69
2021/10/14 09:19:19;;;;;;;;;41.25;32.50;;;;;;;;4996777;28;45662;-72
2021/10/14 09:21:46;;;;;;;;;32.25;28.50;;;;;;;;4997417;28;46997;-72
2021/10/14 09:24:32;;;;;;;;;43.25;32.00;;;;;;;;4997042;28;45325;-74
2021/10/14 09:27:02;;;;;;;;;22.75;19.75;;;;;;;;4990497;28;45354;-74
2021/10/14 09:29:28;;;;;;;;;27.25;24.00;;;;;;;;4997302;28;45478;-75
2021/10/14 09:31:56;;;;;;;;;34.00;28.75;;;;;;;;4995370;28;47083;-75
2021/10/14 09:34:29;;;;;;;;;30.25;27.75;;;;;;;;4997028;28;45178;-69
2021/10/14 09:36:59;;;;;;;;;28.75;23.25;;;;;;;;4997000;28;45319;-73
2021/10/14 09:39:25;;;;;;;;;21.50;16.50;;;;;;;;4995388;28;45493;-68
2021/10/14 09:41:52;;;;;;;;;21.25;17.25;;;;;;;;4996684;28;45378;-72
2021/10/14 09:44:18;;;;;;;;;29.25;24.25;;;;;;;;4996803;28;45886;-69
2021/10/14 09:46:47;;;;;;;;;31.75;28.50;;;;;;;;4997044;28;45367;-70
2021/10/14 09:49:22;;;;;;;;;24.25;19.75;;;;;;;;4995881;28;45323;-72
2021/10/14 09:51:48;;;;;;;;;22.75;21.50;;;;;;;;4996936;28;46221;-71
2021/10/14 09:54:13;;;;;;;;;27.00;21.25;;;;;;;;4997191;28;45443;-69
2021/10/14 09:56:39;;;;;;;;;27.25;19.25;;;;;;;;4996952;28;45333;-66
2021/10/14 09:59:04;;;;;;;;;28.25;24.75;;;;;;;;4997065;28;45360;-70
2021/10/14 10:01:31;;;;;;;;;29.25;24.75;;;;;;;;4997228;28;45545;-68
2021/10/14 10:03:57;;;;;;;;;23.50;20.25;;;;;;;;4996847;28;45427;-72
2021/10/14 10:06:24;;;;;;;;;26.00;21.50;;;;;;;;4996860;28;45452;-69
2021/10/14 10:08:51;;;;;;;;;24.25;22.00;;;;;;;;4995345;28;45485;-69
2021/10/14 10:11:17;;;;;;;;;19.25;17.75;;;;;;;;4996469;28;46328;-71
2021/10/14 10:13:47;;;;;;;;;19.50;17.75;;;;;;;;4996212;28;45450;-68
2021/10/14 10:16:19;;;;;;;;;12.75;10.75;;;;;;;;4996776;28;45434;-71
2021/10/14 10:18:45;;;;;;;;;18.75;17.00;;;;;;;;4996908;28;45539;-70
2021/10/14 10:21:29;;;;;;;;;21.00;17.00;;;;;;;;4995908;28;45408;-69
2021/10/14 10:23:55;;;;;;;;;14.00;10.75;;;;;;;;4996545;28;45430;-69
2021/10/14 10:26:32;;;;;;;;;12.50;12.00;;;;;;;;4996316;28;45336;-71
2021/10/14 10:29:02;;;;;;;;;13.00;12.00;;;;;;;;4994652;28;45386;-71
2021/10/14 10:31:49;;;;;;;;;15.75;14.00;;;;;;;;4995960;28;45518;-67
2021/10/14 10:34:36;;;;;;;;;14.75;12.25;;;;;;;;4996581;28;45488;-72
2021/10/14 10:37:14;;;;;;;;;11.50;11.00;;;;;;;;4994822;28;45406;-70
2021/10/14 10:39:39;;;;;;;;;13.75;11.75;;;;;;;;4994300;28;45571;-71
2021/10/14 10:42:14;;;;;;;;;12.25;9.25;;;;;;;;4994459;28;47082;-71
2021/10/14 10:44:48;;;;;;;;;16.25;13.25;;;;;;;;4995706;28;45399;-72
2021/10/14 10:47:37;;;;;;;;;12.25;8.75;;;;;;;;4995757;28;45363;-72
2021/10/14 10:50:03;;;;;;;;;16.75;12.50;;;;;;;;4992496;28;45460;-70
2021/10/14 10:52:32;;;;;;;;;14.50;13.25;;;;;;;;4993406;28;48146;-68
2021/10/14 10:54:59;;;;;;;;;10.00;7.00;;;;;;;;4994830;28;45403;-70
2021/10/14 10:57:45;;;;;;;;;9.00;7.00;;;;;;;;4995618;28;45242;-68
2021/10/14 11:00:11;;;;;;;;;43.75;32.50;;;;;;;;4995255;28;45610;-71
2021/10/14 11:02:36;;;;;;;;;9.25;8.75;;;;;;;;4995719;28;46314;-71
2021/10/14 11:05:01;;;;;;;;;10.75;10.00;;;;;;;;4995701;28;45312;-68
2021/10/14 11:07:27;;;;;;;;;11.00;7.00;;;;;;;;4995829;28;45297;-68
2021/10/14 11:09:52;;;;;;;;;11.50;8.50;;;;;;;;4996409;28;45344;-69
2021/10/14 11:12:17;;;;;;;;;9.50;6.00;;;;;;;;4996461;28;45382;-71
2021/10/14 11:14:42;;;;;;;;;6.00;5.25;;;;;;;;4995526;28;45211;-70
2021/10/14 11:17:11;;;;;;;;;22.75;19.25;;;;;;;;4996374;28;45288;-68
2021/10/14 11:19:39;;;;;;;;;12.50;10.75;;;;;;;;4994833;28;45495;-66
2021/10/14 11:22:30;;;;;;;;;7.00;7.00;;;;;;;;4994803;28;45729;-71
2021/10/14 11:24:59;;;;;;;;;6.00;6.00;;;;;;;;4994921;28;45446;-68
2021/10/14 11:27:25;;;;;;;;;7.25;5.50;;;;;;;;4995310;28;45260;-75
2021/10/14 11:29:51;;;;;;;;;5.25;4.50;;;;;;;;4997463;28;45396;-73
2021/10/14 11:32:23;;;;;;;;;6.00;5.00;;;;;;;;4997592;28;45754;-72
2021/10/14 11:34:49;;;;;;;;;5.00;5.00;;;;;;;;4997455;28;45300;-67
2021/10/14 11:37:14;;;;;;;;;7.50;7.00;;;;;;;;4996331;28;45305;-70
2021/10/14 11:39:40;;;;;;;;;12.25;8.00;;;;;;;;4995697;28;45423;-72
2021/10/14 11:42:08;;;;;;;;;9.75;9.00;;;;;;;;4994591;28;46290;-73
2021/10/14 11:44:34;;;;;;;;;29.75;26.50;;;;;;;;4995265;28;45374;-73
2021/10/14 11:47:00;;;;;;;;;17.75;14.25;;;;;;;;4995297;28;45399;-71
2021/10/14 11:49:26;;;;;;;;;11.00;8.00;;;;;;;;4994680;28;45353;-71
2021/10/14 11:51:52;;;;;;;;;6.25;5.25;;;;;;;;4995053;28;46244;-73
2021/10/14 11:54:18;;;;;;;;;14.00;11.50;;;;;;;;4994922;28;45355;-74
2021/10/14 11:56:45;;;;;;;;;8.50;8.00;;;;;;;;4994681;28;45237;-71
2021/10/14 11:59:11;;;;;;;;;10.25;7.50;;;;;;;;4994675;28;45243;-72
2021/10/14 12:01:45;;;;;;;;;10.00;6.75;;;;;;;;4994610;28;46346;-71
2021/10/14 12:04:10;;;;;;;;;8.75;8.00;;;;;;;;4994746;28;45245;-71
2021/10/14 12:06:36;;;;;;;;;11.25;9.50;;;;;;;;4994440;28;45416;-69
2021/10/14 12:09:01;;;;;;;;;16.75;15.00;;;;;;;;4994674;28;45195;-69
2021/10/14 12:11:27;;;;;;;;;7.50;6.50;;;;;;;;4994568;28;46035;-70
2021/10/14 12:14:03;;;;;;;;;15.00;12.25;;;;;;;;4993209;28;45469;-71
2021/10/14 12:16:29;;;;;;;;;11.25;9.25;;;;;;;;4994733;28;45315;-67
2021/10/14 12:18:54;;;;;;;;;7.00;6.00;;;;;;;;4993316;28;45418;-71
2021/10/14 12:21:35;;;;;;;;;11.50;7.50;;;;;;;;4994739;28;45418;-71
2021/10/14 12:24:05;;;;;;;;;10.75;10.00;;;;;;;;4994303;28;45249;-71
2021/10/14 12:26:39;;;;;;;;;11.00;10.00;;;;;;;;4994506;28;45339;-73
2021/10/14 12:29:16;;;;;;;;;11.00;11.00;;;;;;;;4994541;28;45447;-70
2021/10/14 12:31:42;;;;;;;;;8.75;7.75;;;;;;;;4994223;28;46459;-71
2021/10/14 12:34:07;;;;;;;;;12.50;10.75;;;;;;;;4994772;28;45461;-71
2021/10/14 12:36:45;;;;;;;;;9.00;8.00;;;;;;;;4994302;28;45483;-68
2021/10/14 12:39:20;;;;;;;;;11.00;9.50;;;;;;;;4994678;28;45474;-69
2021/10/14 12:41:50;;;;;;;;;23.00;21.25;;;;;;;;4994178;28;45604;-68
2021/10/14 12:44:16;;;;;;;;;8.25;6.75;;;;;;;;4993927;28;45475;-71
2021/10/14 12:51:44;;;;;;;;;8.75;7.00;;;;;;;;4994229;28;45467;-70
2021/10/14 12:54:13;;;;;;;;;10.00;7.00;;;;;;;;4994166;28;45162;-69
2021/10/14 12:56:43;;;;;;;;;3.75;3.75;;;;;;;;4994555;28;45375;-70
2021/10/14 12:59:08;;;;;;;;;7.75;5.00;;;;;;;;4995245;28;45461;-71
2021/10/14 13:01:35;;;;;;;;;8.50;8.50;;;;;;;;4994149;28;46919;-72
2021/10/14 13:04:00;;;;;;;;;6.75;6.00;;;;;;;;4997806;28;45341;-73
2021/10/14 13:06:25;;;;;;;;;10.00;8.00;;;;;;;;4997832;28;45402;-74
2021/10/14 13:08:56;;;;;;;;;5.75;5.50;;;;;;;;4997806;28;45330;-70
2021/10/14 13:11:21;;;;;;;;;5.00;5.00;;;;;;;;4997613;28;45459;-69
2021/10/14 13:13:47;;;;;;;;;11.00;5.00;;;;;;;;4997410;28;45829;-68
2021/10/14 13:16:12;;;;;;;;;10.75;8.50;;;;;;;;4997628;28;45431;-73
2021/10/14 13:18:38;;;;;;;;;11.25;10.00;;;;;;;;4997743;28;45392;-70
2021/10/14 13:21:04;;;;;;;;;5.50;5.25;;;;;;;;4997578;28;45778;-72
2021/10/14 13:23:30;;;;;;;;;6.25;6.25;;;;;;;;4996195;28;45338;-72
2021/10/14 13:25:56;;;;;;;;;6.00;6.00;;;;;;;;4997985;28;45269;-71
2021/10/14 13:28:22;;;;;;;;;13.50;8.00;;;;;;;;4998171;28;45626;-75
2021/10/14 13:30:47;;;;;;;;;9.25;6.75;;;;;;;;4998133;28;46176;-75
2021/10/14 13:33:16;;;;;;;;;7.25;7.25;;;;;;;;4997338;28;45258;-70
2021/10/14 13:35:44;;;;;;;;;10.75;10.00;;;;;;;;4997546;28;45283;-72
2021/10/14 13:38:10;;;;;;;;;7.75;7.00;;;;;;;;4997444;28;45262;-73
2021/10/14 13:40:36;;;;;;;;;9.25;9.25;;;;;;;;4996843;28;45316;-71
2021/10/14 13:43:08;;;;;;;;;10.00;8.00;;;;;;;;4996998;28;45244;-71
2021/10/14 13:45:34;;;;;;;;;8.75;7.00;;;;;;;;4997135;28;45301;-71
2021/10/14 13:47:59;;;;;;;;;9.00;7.00;;;;;;;;4997479;28;45806;-68
2021/10/14 13:50:24;;;;;;;;;10.50;9.75;;;;;;;;4997171;28;45294;-70
2021/10/14 13:52:49;;;;;;;;;10.50;7.50;;;;;;;;4996680;28;45364;-71
2021/10/14 13:55:15;;;;;;;;;6.00;6.00;;;;;;;;4995378;28;45374;-69
2021/10/14 13:57:42;;;;;;;;;10.00;10.00;;;;;;;;4996867;28;45372;-69
2021/10/14 14:00:08;;;;;;;;;9.00;7.00;;;;;;;;4996382;28;47347;-71
2021/10/14 14:02:34;;;;;;;;;11.25;8.00;;;;;;;;4996447;28;45918;-72
2021/10/14 14:05:00;;;;;;;;;11.00;8.75;;;;;;;;4997307;28;45432;-70
2021/10/14 14:07:25;;;;;;;;;11.75;8.00;;;;;;;;4996626;28;45233;-72
2021/10/14 14:09:50;;;;;;;;;9.00;8.00;;;;;;;;4996596;28;45428;-71
2021/10/14 14:12:15;;;;;;;;;6.75;6.00;;;;;;;;4996130;28;45582;-71
2021/10/14 14:14:41;;;;;;;;;14.25;7.25;;;;;;;;4996520;28;45356;-72
2021/10/14 14:17:07;;;;;;;;;11.00;9.00;;;;;;;;4996925;28;45347;-72
2021/10/14 14:19:33;;;;;;;;;11.00;10.00;;;;;;;;4996144;28;45374;-69
2021/10/14 14:21:58;;;;;;;;;7.00;6.00;;;;;;;;4995332;28;45329;-72